Time;durP1;ratioP1;P1;durP2;ratioP2;P2;SDS_P1;SDS_P2;PMS_P1;PMS_P2;Temp;Humidity;BMP_temperature;BMP_pressure;BME280_temperature;BME280_humidity;BME280_pressure;Samples;Min_cycle;Max_cycle;Signal;HPM_P1;HPM_P2
2023/10/06 00:01:42;;;;;;;21.80;11.30;;;;;;;14.50;100.00;101614.34;5094353;28;20051;-69
2023/10/06 00:04:12;;;;;;;21.02;10.75;;;;;;;14.11;100.00;101566.41;5094191;28;20035;-69
2023/10/06 00:06:38;;;;;;;21.42;10.98;;;;;;;14.31;100.00;101555.00;5094174;28;20031;-69
2023/10/06 00:09:08;;;;;;;18.75;10.00;;;;;;;14.52;100.00;101557.16;5094093;28;20028;-69
2023/10/06 00:11:37;;;;;;;20.55;9.75;;;;;;;14.64;100.00;101563.75;5094086;28;20032;-70
2023/10/06 00:14:19;;;;;;;16.38;9.45;;;;;;;14.41;100.00;101548.00;5093680;28;20040;-70
2023/10/06 00:16:44;;;;;;;17.05;9.60;;;;;;;14.42;100.00;101539.47;5093875;28;20032;-69
2023/10/06 00:19:32;;;;;;;18.95;9.43;;;;;;;14.67;100.00;101600.41;5093988;28;20414;-69
2023/10/06 00:24:41;;;;;;;20.20;9.40;;;;;;;14.65;100.00;101561.19;5093874;28;20036;-69
2023/10/06 00:27:11;;;;;;;17.60;9.13;;;;;;;14.60;100.00;101557.00;5089970;28;20504;-70
2023/10/06 00:29:44;;;;;;;20.70;9.60;;;;;;;15.04;100.00;101617.59;5093748;28;20039;-70
2023/10/06 00:32:21;;;;;;;19.70;8.85;;;;;;;14.92;100.00;101628.09;5093863;28;20021;-70
2023/10/06 00:34:52;;;;;;;16.52;8.68;;;;;;;14.84;100.00;101553.97;5093429;28;20032;-70
2023/10/06 00:37:25;;;;;;;15.05;8.82;;;;;;;14.64;100.00;101515.13;5093402;28;20032;-69
2023/10/06 00:39:54;;;;;;;20.27;9.02;;;;;;;14.72;100.00;101511.53;5093552;28;20084;-68
2023/10/06 00:42:26;;;;;;;19.23;9.50;;;;;;;14.89;100.00;101611.09;5097065;28;20053;-68
2023/10/06 00:44:53;;;;;;;20.23;9.63;;;;;;;14.68;100.00;101562.84;5097199;28;20036;-68
2023/10/06 00:47:21;;;;;;;18.25;10.60;;;;;;;15.00;100.00;101604.03;5096435;28;20024;-68
2023/10/06 00:49:46;;;;;;;24.23;11.43;;;;;;;14.74;100.00;101626.72;5091992;28;20185;-69
2023/10/06 00:52:15;;;;;;;18.92;10.38;;;;;;;14.95;100.00;101653.66;5093027;28;20526;-68
2023/10/06 00:54:44;;;;;;;17.00;10.20;;;;;;;15.04;100.00;101649.19;5093318;28;20028;-68
2023/10/06 00:57:18;;;;;;;19.85;9.95;;;;;;;14.73;100.00;101604.56;5093038;28;20085;-70
2023/10/06 00:59:44;;;;;;;20.60;10.02;;;;;;;14.72;100.00;101541.41;5093297;28;20036;-69
2023/10/06 01:02:11;;;;;;;18.90;9.75;;;;;;;15.32;100.00;101650.34;5093255;28;20486;-69
2023/10/06 01:04:44;;;;;;;19.75;9.30;;;;;;;15.42;100.00;101645.91;5092915;28;20024;-68
2023/10/06 01:07:12;;;;;;;19.27;9.90;;;;;;;15.55;100.00;101653.28;5093150;28;20058;-68
2023/10/06 01:09:38;;;;;;;19.10;9.82;;;;;;;15.24;100.00;101654.78;5092880;28;20024;-68
2023/10/06 01:12:09;;;;;;;20.30;10.25;;;;;;;14.81;100.00;101592.47;5092856;28;20119;-67
2023/10/06 01:14:36;;;;;;;21.58;10.55;;;;;;;14.99;100.00;101622.00;5092863;28;20039;-68
2023/10/06 01:17:17;;;;;;;23.80;10.93;;;;;;;15.33;100.00;101692.22;5092938;28;20452;-68
2023/10/06 01:19:52;;;;;;;19.47;10.10;;;;;;;15.08;100.00;101679.00;5092950;28;20097;-68
2023/10/06 01:22:32;;;;;;;20.17;9.77;;;;;;;15.38;100.00;101692.94;5092820;28;20054;-68
2023/10/06 01:24:58;;;;;;;20.92;10.35;;;;;;;14.48;100.00;101581.13;5092499;28;20028;-67
2023/10/06 01:27:26;;;;;;;21.77;10.18;;;;;;;14.95;100.00;101657.06;5092346;28;20028;-70
2023/10/06 01:32:43;;;;;;;19.90;10.43;;;;;;;15.28;100.00;101707.66;5092361;28;20039;-68
2023/10/06 01:35:12;;;;;;;21.85;10.02;;;;;;;14.93;100.00;101699.81;5092589;28;20082;-69
2023/10/06 01:37:45;;;;;;;18.10;9.93;;;;;;;14.75;100.00;101660.00;5092446;28;20051;-68
2023/10/06 01:42:55;;;;;;;21.95;10.48;;;;;;;14.84;100.00;101694.81;5092314;28;20498;-70
2023/10/06 01:45:21;;;;;;;22.67;11.10;;;;;;;14.86;100.00;101740.88;5092098;28;20028;-69
2023/10/06 01:48:22;;;;;;;23.60;10.90;;;;;;;14.87;100.00;101725.53;5091996;28;20027;-69
2023/10/06 01:50:42;;;;;;;19.92;10.90;;;;;;;15.22;100.00;101760.75;5091753;28;20056;-69
2023/10/06 01:53:11;;;;;;;20.77;11.38;;;;;;;14.90;100.00;101688.75;5091988;28;20098;-69
2023/10/06 01:55:39;;;;;;;23.80;11.15;;;;;;;14.80;100.00;101671.88;5092166;28;20089;-69
2023/10/06 01:58:06;;;;;;;19.55;10.88;;;;;;;14.87;100.00;101710.16;5091382;28;20028;-69
2023/10/06 02:00:34;;;;;;;20.80;11.18;;;;;;;15.01;100.00;101727.84;5090725;28;20474;-69
2023/10/06 02:03:00;;;;;;;21.88;11.85;;;;;;;14.88;100.00;101701.59;5090688;28;20032;-69
2023/10/06 02:05:26;;;;;;;19.48;11.02;;;;;;;14.80;100.00;101690.63;5091445;28;20476;-70
2023/10/06 02:07:51;;;;;;;19.98;11.10;;;;;;;15.32;100.00;101747.75;5091931;28;20016;-69
2023/10/06 02:10:18;;;;;;;21.15;11.85;;;;;;;15.10;100.00;101717.41;5091737;28;20062;-69
2023/10/06 02:12:47;;;;;;;22.05;11.13;;;;;;;14.97;100.00;101741.56;5091497;28;20075;-69
2023/10/06 02:15:13;;;;;;;21.27;11.88;;;;;;;14.77;100.00;101712.03;5091609;28;20044;-69
2023/10/06 02:17:40;;;;;;;21.25;11.38;;;;;;;14.47;100.00;101720.22;5091586;28;20085;-68
2023/10/06 02:20:29;;;;;;;21.60;11.15;;;;;;;15.18;100.00;101766.78;5091672;28;20039;-71
2023/10/06 02:22:59;;;;;;;19.73;11.77;;;;;;;14.85;100.00;101788.72;5090363;28;20024;-71
2023/10/06 02:25:26;;;;;;;18.60;10.68;;;;;;;14.67;100.00;101742.94;5091534;28;20028;-69
2023/10/06 02:27:53;;;;;;;18.95;10.38;;;;;;;15.07;100.00;101797.75;5090127;28;20031;-69
2023/10/06 02:30:39;;;;;;;21.80;10.80;;;;;;;14.39;100.00;101754.47;5091172;28;20173;-69
2023/10/06 02:33:05;;;;;;;19.83;10.30;;;;;;;15.24;100.00;101836.72;5091564;28;21121;-69
2023/10/06 02:35:32;;;;;;;20.27;10.73;;;;;;;14.78;100.00;101817.84;5091402;28;20098;-71
2023/10/06 02:37:58;;;;;;;20.58;11.23;;;;;;;14.89;100.00;101836.47;5091395;28;20035;-70
2023/10/06 02:40:31;;;;;;;18.98;11.18;;;;;;;14.99;100.00;101852.53;5091092;28;20024;-71
2023/10/06 02:42:59;;;;;;;17.73;10.30;;;;;;;14.89;100.00;101815.97;5090520;28;20039;-68
2023/10/06 02:45:30;;;;;;;21.70;10.60;;;;;;;14.65;100.00;101832.56;5091256;28;20114;-70
2023/10/06 02:47:58;;;;;;;21.55;11.30;;;;;;;14.25;100.00;101738.44;5089605;28;20076;-68
2023/10/06 02:50:24;;;;;;;21.92;11.70;;;;;;;14.01;100.00;101736.22;5089955;28;20039;-69
2023/10/06 02:52:53;;;;;;;22.83;11.43;;;;;;;13.89;100.00;101704.84;5090821;28;20032;-69
2023/10/06 02:55:31;;;;;;;21.48;11.52;;;;;;;13.94;100.00;101710.72;5090716;28;20496;-68
2023/10/06 02:57:58;;;;;;;26.23;11.60;;;;;;;14.30;100.00;101744.38;5091265;28;20035;-69
2023/10/06 03:02:55;;;;;;;24.60;11.30;;;;;;;13.67;100.00;101602.91;5090598;28;20414;-70
2023/10/06 03:05:30;;;;;;;21.10;10.98;;;;;;;13.99;100.00;101662.09;5091196;28;20032;-71
2023/10/06 03:07:56;;;;;;;25.05;11.75;;;;;;;14.13;100.00;101702.78;5090545;28;20520;-70
2023/10/06 03:10:26;;;;;;;23.48;11.80;;;;;;;14.10;100.00;101708.81;5089205;28;20079;-70
2023/10/06 03:12:52;;;;;;;24.70;12.52;;;;;;;13.75;100.00;101665.84;5089368;28;20028;-68
2023/10/06 03:15:28;;;;;;;21.83;11.98;;;;;;;13.69;100.00;101652.28;5090876;28;20048;-68
2023/10/06 03:17:58;;;;;;;26.08;12.98;;;;;;;13.43;100.00;101644.97;5090676;28;20032;-68
2023/10/06 03:20:27;;;;;;;28.27;12.93;;;;;;;13.81;100.00;101721.16;5090140;28;20062;-70
2023/10/06 03:22:55;;;;;;;28.38;12.82;;;;;;;13.73;100.00;101725.50;5090612;28;20032;-68
2023/10/06 03:25:20;;;;;;;32.30;11.90;;;;;;;13.77;100.00;101722.91;5089378;28;20079;-68
2023/10/06 03:27:49;;;;;;;25.55;12.73;;;;;;;13.86;100.00;101734.72;5090442;28;20490;-68
2023/10/06 03:30:19;;;;;;;25.67;11.90;;;;;;;13.54;100.00;101704.47;5089126;28;20478;-70
2023/10/06 03:32:48;;;;;;;23.90;12.02;;;;;;;13.50;100.00;101724.94;5090259;28;20036;-69
2023/10/06 03:35:22;;;;;;;25.50;12.23;;;;;;;13.20;100.00;101689.53;5089271;28;20036;-68
2023/10/06 03:38:07;;;;;;;24.40;11.75;;;;;;;13.73;100.00;101774.09;5090860;28;20481;-69
2023/10/06 03:40:43;;;;;;;22.77;11.85;;;;;;;13.61;100.00;101746.97;5090321;28;20194;-69
2023/10/06 03:43:12;;;;;;;18.15;10.00;;;;;;;13.96;100.00;101781.47;5090460;28;20530;-69
2023/10/06 03:45:40;;;;;;;19.35;9.70;;;;;;;13.88;100.00;101782.41;5090647;28;20028;-69
2023/10/06 03:48:12;;;;;;;22.20;10.82;;;;;;;13.22;100.00;101744.00;5088941;28;20394;-69
2023/10/06 03:50:38;;;;;;;18.60;10.43;;;;;;;13.58;100.00;101736.78;5089930;28;20111;-68
2023/10/06 03:53:08;;;;;;;20.77;10.55;;;;;;;13.60;100.00;101811.75;5090075;28;20034;-68
2023/10/06 03:55:39;;;;;;;22.08;11.00;;;;;;;13.88;100.00;101842.94;5090120;28;20054;-69
2023/10/06 03:58:09;;;;;;;20.30;10.52;;;;;;;13.90;100.00;101867.63;5090330;28;20581;-69
2023/10/06 04:00:40;;;;;;;24.98;11.27;;;;;;;13.76;100.00;101826.03;5090263;28;20034;-70
2023/10/06 04:03:10;;;;;;;22.27;11.50;;;;;;;13.04;100.00;101745.88;5090160;28;20031;-70
2023/10/06 04:05:38;;;;;;;21.38;11.40;;;;;;;13.82;100.00;101895.00;5088912;28;20028;-68
2023/10/06 04:08:08;;;;;;;23.60;11.63;;;;;;;13.57;100.00;101859.47;5095251;28;20062;-69
2023/10/06 04:10:36;;;;;;;19.48;11.60;;;;;;;13.48;100.00;101862.13;5098539;28;20035;-70
2023/10/06 04:13:03;;;;;;;20.10;11.85;;;;;;;13.18;100.00;101863.22;5090413;28;20039;-69
2023/10/06 04:15:28;;;;;;;30.10;12.55;;;;;;;13.48;100.00;101880.84;5087966;28;20063;-71
2023/10/06 04:17:54;;;;;;;20.50;11.07;;;;;;;14.24;100.00;101956.78;5087905;28;20028;-71
2023/10/06 04:20:20;;;;;;;24.48;11.98;;;;;;;13.94;100.00;101935.78;5091383;28;20114;-71
2023/10/06 04:22:45;;;;;;;24.98;12.05;;;;;;;13.71;100.00;101929.19;5093401;28;20032;-68
2023/10/06 04:25:11;;;;;;;29.88;12.68;;;;;;;13.39;100.00;101916.69;5093599;28;20116;-69
2023/10/06 04:27:36;;;;;;;23.98;11.15;;;;;;;13.05;100.00;101865.03;5093503;28;20031;-73
2023/10/06 04:30:04;;;;;;;26.65;11.38;;;;;;;13.05;100.00;101859.91;5093494;28;20028;-69
2023/10/06 04:32:30;;;;;;;22.98;10.50;;;;;;;13.33;100.00;101875.88;5093191;28;20057;-70
2023/10/06 04:34:57;;;;;;;28.73;10.98;;;;;;;13.00;100.00;101812.28;5093536;28;20098;-68
2023/10/06 04:37:24;;;;;;;20.60;10.13;;;;;;;13.82;100.00;101887.34;5091909;28;20113;-70
2023/10/06 04:39:49;;;;;;;22.38;11.40;;;;;;;13.56;100.00;101858.63;5092203;28;20051;-70
2023/10/06 04:42:14;;;;;;;32.95;10.70;;;;;;;14.60;100.00;101884.69;5093110;28;20028;-71
2023/10/06 04:44:41;;;;;;;26.77;11.10;;;;;;;14.28;100.00;101874.88;5093608;28;20028;-70
2023/10/06 04:47:09;;;;;;;23.60;10.88;;;;;;;13.49;100.00;101851.88;5093228;28;20043;-70
2023/10/06 04:49:34;;;;;;;29.70;11.32;;;;;;;13.35;100.00;101799.22;5093184;28;20024;-71
2023/10/06 04:52:00;;;;;;;25.63;11.05;;;;;;;12.84;100.00;101759.66;5092703;28;20046;-70
2023/10/06 04:54:26;;;;;;;21.77;10.80;;;;;;;13.42;100.00;101773.59;5093423;28;20036;-71
2023/10/06 04:56:52;;;;;;;22.90;11.23;;;;;;;13.37;100.00;101771.97;5093371;28;20036;-69
2023/10/06 04:59:19;;;;;;;27.75;11.10;;;;;;;13.90;100.00;101818.22;5091410;28;20031;-69
2023/10/06 05:01:45;;;;;;;23.15;11.60;;;;;;;13.88;100.00;101805.41;5091960;28;20409;-69
2023/10/06 05:04:10;;;;;;;26.65;12.80;;;;;;;13.91;100.00;101812.22;5093029;28;20032;-71
2023/10/06 05:06:36;;;;;;;27.63;13.00;;;;;;;13.95;100.00;101813.88;5092485;28;20051;-70
2023/10/06 05:09:02;;;;;;;26.20;12.82;;;;;;;13.78;100.00;101803.00;5092514;28;20086;-68
2023/10/06 05:11:32;;;;;;;25.05;11.95;;;;;;;13.64;100.00;101764.84;5092988;28;20409;-70
2023/10/06 05:13:58;;;;;;;23.95;12.80;;;;;;;13.35;100.00;101766.84;5093124;28;20048;-70
2023/10/06 05:16:27;;;;;;;23.13;12.52;;;;;;;13.48;100.00;101801.66;5092761;28;20236;-69
2023/10/06 05:18:53;;;;;;;25.83;12.32;;;;;;;14.08;100.00;101858.91;5092739;28;20020;-70
2023/10/06 05:21:20;;;;;;;28.95;12.65;;;;;;;14.20;100.00;101857.91;5091156;28;20375;-69
2023/10/06 05:23:46;;;;;;;24.08;12.77;;;;;;;14.16;100.00;101846.03;5091823;28;20383;-70
2023/10/06 05:26:14;;;;;;;25.83;13.18;;;;;;;13.62;100.00;101801.50;5091320;28;20028;-70
2023/10/06 05:28:40;;;;;;;22.70;13.73;;;;;;;13.88;100.00;101828.44;5092468;28;20406;-70
2023/10/06 05:31:07;;;;;;;25.65;14.10;;;;;;;13.66;100.00;101839.78;5092432;28;20035;-70
2023/10/06 05:33:32;;;;;;;26.23;14.10;;;;;;;13.97;100.00;101854.75;5092321;28;20028;-69
2023/10/06 05:35:58;;;;;;;28.27;15.57;;;;;;;13.73;100.00;101850.78;5092301;28;20032;-70
2023/10/06 05:38:24;;;;;;;28.08;15.45;;;;;;;13.72;100.00;101829.50;5091386;28;20452;-70
2023/10/06 05:40:49;;;;;;;32.60;16.15;;;;;;;13.82;100.00;101825.13;5092265;28;20060;-68
2023/10/06 05:43:16;;;;;;;27.75;15.25;;;;;;;14.25;100.00;101820.31;5091998;28;20067;-69
2023/10/06 05:45:42;;;;;;;25.15;13.85;;;;;;;15.18;100.00;101849.66;5092649;28;20055;-70
2023/10/06 05:48:10;;;;;;;24.08;13.52;;;;;;;15.51;100.00;101812.34;5092091;28;20027;-69
2023/10/06 05:50:36;;;;;;;30.60;13.30;;;;;;;15.63;100.00;101785.66;5090572;28;20038;-70
2023/10/06 05:53:07;;;;;;;23.52;13.27;;;;;;;15.87;100.00;101754.34;5092021;28;20528;-70
2023/10/06 05:55:41;;;;;;;22.67;12.48;;;;;;;15.49;100.00;101661.13;5090794;28;20028;-70
2023/10/06 05:58:09;;;;;;;25.33;13.07;;;;;;;16.32;100.00;101699.44;5092015;28;20038;-70
2023/10/06 06:00:50;;;;;;;22.65;11.55;;;;;;;16.30;100.00;101593.41;5091717;28;20075;-70
2023/10/06 06:03:20;;;;;;;26.90;12.02;;;;;;;16.78;100.00;101611.81;5091949;28;20035;-70
2023/10/06 06:05:57;;;;;;;23.83;11.60;;;;;;;17.01;100.00;101624.88;5092069;28;20020;-70
2023/10/06 06:08:23;;;;;;;25.52;11.27;;;;;;;17.04;100.00;101545.97;5091916;28;20032;-70
2023/10/06 06:10:48;;;;;;;25.67;12.02;;;;;;;17.63;100.00;101571.66;5092102;28;20032;-69
2023/10/06 06:13:14;;;;;;;22.63;11.88;;;;;;;17.42;100.00;101573.09;5091225;28;20383;-69
2023/10/06 06:15:40;;;;;;;25.08;12.35;;;;;;;17.65;100.00;101557.00;5091748;28;20028;-70
2023/10/06 06:18:08;;;;;;;21.73;12.02;;;;;;;18.38;100.00;101551.06;5091761;28;20016;-69
2023/10/06 06:20:38;;;;;;;23.02;11.75;;;;;;;18.12;100.00;101482.44;5091719;28;20036;-70
2023/10/06 06:23:04;;;;;;;28.50;11.77;;;;;;;18.28;100.00;101518.84;5091352;28;20023;-70
2023/10/06 06:25:29;;;;;;;22.40;11.98;;;;;;;17.37;100.00;101513.28;5091455;28;20032;-70
2023/10/06 06:28:00;;;;;;;19.67;11.80;;;;;;;17.73;100.00;101499.25;5091346;28;20581;-70
2023/10/06 06:30:27;;;;;;;21.20;11.48;;;;;;;18.54;100.00;101523.09;5091394;28;20038;-70
2023/10/06 06:32:53;;;;;;;22.33;11.30;;;;;;;17.87;100.00;101532.25;5090011;28;20460;-69
2023/10/06 06:35:23;;;;;;;24.95;12.43;;;;;;;18.68;100.00;101483.03;5091306;28;20033;-69
2023/10/06 06:37:59;;;;;;;23.42;11.88;;;;;;;19.04;100.00;101547.84;5090173;28;20032;-71
2023/10/06 06:40:26;;;;;;;22.13;11.52;;;;;;;18.99;100.00;101480.97;5091212;28;20040;-69
2023/10/06 06:42:52;;;;;;;23.65;11.60;;;;;;;18.76;100.00;101545.44;5090702;28;20089;-70
2023/10/06 06:45:20;;;;;;;22.92;11.73;;;;;;;18.79;100.00;101482.63;5089936;28;20031;-71
2023/10/06 06:47:46;;;;;;;19.98;10.90;;;;;;;19.09;100.00;101535.63;5091292;28;20046;-69
2023/10/06 06:50:17;;;;;;;20.67;12.10;;;;;;;18.31;100.00;101486.97;5091165;28;20485;-70
2023/10/06 06:52:48;;;;;;;22.08;11.75;;;;;;;18.91;100.00;101489.91;5090990;28;20032;-69
2023/10/06 06:55:13;;;;;;;22.33;11.38;;;;;;;18.63;100.00;101481.53;5091163;28;20047;-69
2023/10/06 06:57:48;;;;;;;25.15;12.73;;;;;;;19.43;100.00;101468.13;5090749;28;20118;-70
2023/10/06 07:00:24;;;;;;;27.77;13.05;;;;;;;20.10;100.00;101453.22;5091143;28;20024;-71
2023/10/06 07:02:51;;;;;;;23.17;12.77;;;;;;;19.28;100.00;101440.31;5090803;28;20024;-68
2023/10/06 07:05:18;;;;;;;20.75;13.00;;;;;;;18.66;100.00;101464.22;5090757;28;20031;-69
2023/10/06 07:07:46;;;;;;;26.15;14.18;;;;;;;19.68;100.00;101461.03;5089420;28;20059;-69
2023/10/06 07:10:20;;;;;;;29.73;14.40;;;;;;;19.00;100.00;101430.25;5091104;28;20468;-69
2023/10/06 07:12:52;;;;;;;27.70;15.15;;;;;;;19.69;100.00;101483.34;5090571;28;20562;-70
2023/10/06 07:15:20;;;;;;;32.47;15.68;;;;;;;20.05;100.00;101470.63;5089132;28;20048;-70
2023/10/06 07:17:49;;;;;;;33.35;14.95;;;;;;;19.83;100.00;101475.88;5090603;28;20123;-69
2023/10/06 07:20:19;;;;;;;28.45;15.10;;;;;;;21.05;100.00;101464.41;5090338;28;20038;-70
2023/10/06 07:22:45;;;;;;;26.50;14.93;;;;;;;21.07;100.00;101441.88;5089387;28;20390;-70
2023/10/06 07:25:11;;;;;;;27.73;14.88;;;;;;;21.62;100.00;101433.09;5090695;28;20024;-70
2023/10/06 07:27:40;;;;;;;25.52;15.10;;;;;;;21.06;100.00;101422.09;5090488;28;20028;-68
2023/10/06 07:30:10;;;;;;;29.45;14.85;;;;;;;20.88;100.00;101372.06;5090582;28;20035;-69
2023/10/06 07:32:40;;;;;;;26.98;15.52;;;;;;;21.93;100.00;101411.66;5088898;28;20485;-69
2023/10/06 07:35:11;;;;;;;34.08;15.63;;;;;;;22.58;100.00;101408.22;5093517;28;20514;-69
2023/10/06 07:37:43;;;;;;;28.30;16.20;;;;;;;22.33;100.00;101355.06;5100548;28;20089;-69
2023/10/06 07:40:13;;;;;;;31.10;14.80;;;;;;;23.04;100.00;101395.16;5091926;28;20063;-69
2023/10/06 07:42:41;;;;;;;21.90;12.38;;;;;;;22.48;100.00;101360.34;5085202;28;20039;-69
2023/10/06 07:45:07;;;;;;;23.92;12.15;;;;;;;22.69;100.00;101357.41;5070584;28;20070;-70
2023/10/06 07:47:34;;;;;;;27.13;12.13;;;;;;;21.97;100.00;101330.28;5070316;28;20032;-70
2023/10/06 07:50:00;;;;;;;23.15;11.55;;;;;;;23.21;100.00;101396.81;5070591;28;20123;-68
2023/10/06 07:52:25;;;;;;;23.13;10.95;;;;;;;22.00;100.00;101354.28;5069694;28;20032;-69
2023/10/06 07:54:52;;;;;;;22.10;10.50;;;;;;;22.22;100.00;101404.03;5070750;28;20036;-72
2023/10/06 07:57:18;;;;;;;22.35;10.00;;;;;;;22.73;100.00;101335.56;5074011;28;20067;-70
2023/10/06 07:59:43;;;;;;;21.55;10.32;;;;;;;23.36;100.00;101390.75;5073677;28;20451;-71
2023/10/06 08:02:10;;;;;;;22.13;10.85;;;;;;;23.35;100.00;101347.56;5073678;28;20119;-71
2023/10/06 08:04:35;;;;;;;20.88;10.40;;;;;;;23.46;100.00;101346.91;5073978;28;20684;-69
2023/10/06 08:07:01;;;;;;;18.38;9.80;;;;;;;23.48;100.00;101403.03;5073582;28;20518;-69
2023/10/06 08:09:27;;;;;;;19.42;10.45;;;;;;;23.49;100.00;101401.28;5073985;28;20104;-68
2023/10/06 08:11:54;;;;;;;21.08;11.63;;;;;;;23.48;100.00;101413.41;5072173;28;20482;-69
2023/10/06 08:14:20;;;;;;;20.25;11.57;;;;;;;23.63;100.00;101365.75;5071996;28;20533;-70
2023/10/06 08:16:49;;;;;;;18.65;10.32;;;;;;;22.82;100.00;101396.47;5073678;28;20039;-68
2023/10/06 08:19:15;;;;;;;19.85;10.20;;;;;;;22.73;100.00;101373.63;5072463;28;20028;-69
2023/10/06 08:21:41;;;;;;;23.00;10.30;;;;;;;22.71;100.00;101359.91;5073511;28;20391;-69
2023/10/06 08:24:07;;;;;;;19.48;10.43;;;;;;;23.10;100.00;101412.16;5073706;28;20077;-69
2023/10/06 08:26:33;;;;;;;23.92;11.10;;;;;;;23.38;100.00;101412.28;5073142;28;20032;-69
2023/10/06 08:28:59;;;;;;;20.98;10.52;;;;;;;23.26;100.00;101385.22;5073338;28;20043;-71
2023/10/06 08:31:26;;;;;;;18.05;10.38;;;;;;;22.62;100.00;101335.31;5072281;28;20032;-69
2023/10/06 08:33:51;;;;;;;24.23;10.80;;;;;;;23.03;100.00;101351.16;5073444;28;20484;-69
2023/10/06 08:36:17;;;;;;;24.95;10.43;;;;;;;23.05;100.00;101375.25;5073479;28;20483;-69
2023/10/06 08:38:46;;;;;;;22.27;10.70;;;;;;;23.29;100.00;101403.22;5073285;28;20036;-69
2023/10/06 08:41:12;;;;;;;23.60;9.93;;;;;;;23.27;100.00;101341.94;5073216;28;20033;-68
2023/10/06 08:43:39;;;;;;;20.90;10.02;;;;;;;23.58;100.00;101401.56;5073231;28;20029;-69
2023/10/06 08:46:06;;;;;;;18.85;9.55;;;;;;;23.65;100.00;101347.50;5073360;28;20031;-69
2023/10/06 08:48:32;;;;;;;16.15;8.85;;;;;;;23.57;100.00;101396.47;5072584;28;20126;-69
2023/10/06 08:51:03;;;;;;;20.40;9.30;;;;;;;23.77;100.00;101409.94;5071796;28;20032;-70
2023/10/06 08:53:31;;;;;;;17.43;8.97;;;;;;;23.39;100.00;101311.84;5073057;28;20031;-69
2023/10/06 08:55:57;;;;;;;19.38;8.65;;;;;;;23.68;100.00;101329.13;5072596;28;20832;-69
2023/10/06 08:58:26;;;;;;;21.30;8.20;;;;;;;24.03;100.00;101393.63;5072838;28;20107;-69
2023/10/06 09:00:52;;;;;;;17.52;8.35;;;;;;;24.05;100.00;101381.38;5072997;28;20028;-69
2023/10/06 09:03:20;;;;;;;14.15;8.27;;;;;;;24.20;100.00;101379.63;5073034;28;20029;-69
2023/10/06 09:05:45;;;;;;;14.80;7.43;;;;;;;24.19;100.00;101372.72;5072424;28;20033;-69
2023/10/06 09:08:15;;;;;;;20.10;7.75;;;;;;;24.09;100.00;101343.03;5072530;28;20457;-69
2023/10/06 09:10:43;;;;;;;19.55;6.90;;;;;;;24.31;100.00;101371.13;5072700;28;20099;-69
2023/10/06 09:13:12;;;;;;;13.32;6.95;;;;;;;24.56;100.00;101332.25;5072802;28;20028;-69
2023/10/06 09:15:43;;;;;;;13.50;7.20;;;;;;;24.15;100.00;101315.81;5072413;28;20052;-69
2023/10/06 09:18:28;;;;;;;14.87;8.07;;;;;;;24.52;100.00;101367.19;5072579;28;20039;-72
2023/10/06 09:20:54;;;;;;;14.48;7.78;;;;;;;24.29;100.00;101380.78;5072353;28;20279;-69
2023/10/06 09:23:31;;;;;;;16.90;7.80;;;;;;;23.77;100.00;101295.59;5072393;28;20109;-69
2023/10/06 09:25:57;;;;;;;22.98;7.82;;;;;;;24.06;100.00;101325.03;5071228;28;20479;-69
2023/10/06 09:28:23;;;;;;;17.42;7.70;;;;;;;24.37;100.00;101382.00;5072370;28;20036;-69
2023/10/06 09:31:05;;;;;;;18.45;7.55;;;;;;;24.02;100.00;101294.94;5072317;28;20044;-70
2023/10/06 09:33:37;;;;;;;;;;;;;;;24.54;100.00;101373.13;5072631;28;20078;-69
2023/10/06 09:36:07;;;;;;;16.33;7.70;;;;;;;24.49;100.00;101343.97;5072345;28;19916;-69
2023/10/06 09:38:36;;;;;;;11.82;7.28;;;;;;;24.48;100.00;101360.50;5070871;28;20687;-69
2023/10/06 09:41:02;;;;;;;15.68;7.72;;;;;;;24.41;100.00;101328.00;5070854;28;20450;-68
2023/10/06 09:43:33;;;;;;;14.02;7.28;;;;;;;25.30;100.00;101349.00;5070662;28;20028;-68
2023/10/06 09:46:04;;;;;;;15.68;7.68;;;;;;;25.70;100.00;101290.66;5071711;28;20116;-70
2023/10/06 09:48:33;;;;;;;10.73;6.75;;;;;;;25.66;100.00;101343.09;5071447;28;20127;-69
2023/10/06 09:51:01;;;;;;;15.27;6.95;;;;;;;25.26;100.00;101328.44;5072038;28;20025;-69
2023/10/06 09:53:28;;;;;;;13.15;7.22;;;;;;;25.68;100.00;101334.22;5071602;28;20040;-69
2023/10/06 09:55:53;;;;;;;11.02;7.40;;;;;;;25.26;100.00;101346.69;5072030;28;20451;-69
2023/10/06 09:58:22;;;;;;;14.82;7.40;;;;;;;25.50;100.00;101330.28;5071599;28;20059;-69
2023/10/06 10:00:49;;;;;;;23.92;7.45;;;;;;;25.67;100.00;101321.31;5069977;28;20028;-69
2023/10/06 10:03:16;;;;;;;15.32;7.00;;;;;;;25.05;100.00;101309.06;5071709;28;20115;-71
2023/10/06 10:05:43;;;;;;;11.00;6.82;;;;;;;25.32;100.00;101315.88;5071649;28;20024;-70
2023/10/06 10:08:10;;;;;;;11.48;6.90;;;;;;;25.36;100.00;101319.94;5071645;28;20025;-70
2023/10/06 10:10:39;;;;;;;14.73;7.70;;;;;;;25.75;100.00;101308.59;5070640;28;20394;-70
2023/10/06 10:13:13;;;;;;;18.58;7.38;;;;;;;26.09;100.00;101304.44;5070897;28;20441;-69
2023/10/06 10:15:57;;;;;;;15.77;7.35;;;;;;;26.17;100.00;101309.94;5071372;28;20100;-69
2023/10/06 10:18:39;;;;;;;17.27;7.93;;;;;;;25.32;100.00;101279.41;5070755;28;20501;-71
2023/10/06 10:21:11;;;;;;;14.50;7.10;;;;;;;25.22;100.00;101262.72;5071273;28;20104;-70
2023/10/06 10:23:40;;;;;;;13.25;7.30;;;;;;;25.61;100.00;101295.69;5071102;28;20111;-70
2023/10/06 10:26:18;;;;;;;12.10;7.38;;;;;;;25.56;100.00;101303.81;5071455;28;20099;-70
2023/10/06 10:29:04;;;;;;;13.95;7.50;;;;;;;25.08;100.00;101197.75;5070969;28;20025;-70
2023/10/06 10:31:36;;;;;;;16.02;7.72;;;;;;;25.64;100.00;101291.06;5070966;28;20043;-71
2023/10/06 10:34:02;;;;;;;12.90;7.03;;;;;;;25.18;100.00;101239.59;5069134;28;20429;-69
2023/10/06 10:36:27;;;;;;;14.48;7.70;;;;;;;25.22;100.00;101243.66;5069762;28;20024;-70
2023/10/06 10:38:59;;;;;;;15.38;7.85;;;;;;;25.53;100.00;101210.19;5070651;28;20028;-69
2023/10/06 10:41:27;;;;;;;16.40;7.72;;;;;;;26.05;100.00;101209.13;5071146;28;20032;-71
2023/10/06 10:43:55;;;;;;;16.73;7.72;;;;;;;26.03;100.00;101255.31;5070947;28;20086;-70
2023/10/06 10:46:47;;;;;;;18.83;7.72;;;;;;;25.72;100.00;101262.72;5069438;28;20029;-72
2023/10/06 10:49:13;;;;;;;;;;;;;;;25.90;100.00;101288.41;5071205;28;20488;-70
2023/10/06 10:51:49;;;;;;;15.32;7.10;;;;;;;26.16;100.00;101263.97;5070743;28;19912;-70
2023/10/06 10:54:21;;;;;;;13.40;7.20;;;;;;;26.03;100.00;101276.19;5070677;28;20035;-70
2023/10/06 10:56:49;;;;;;;;;;;;;;;26.23;100.00;101258.19;5071179;28;20112;-69
2023/10/06 10:59:16;;;;;;;11.98;7.80;;;;;;;25.88;100.00;101236.38;5073704;28;19908;-71
2023/10/06 11:01:43;;;;;;;11.88;7.63;;;;;;;25.77;100.00;101199.81;5079545;28;20024;-71
2023/10/06 11:04:18;;;;;;;14.77;8.45;;;;;;;26.00;100.00;101245.09;5073320;28;20032;-71
2023/10/06 11:06:50;;;;;;;12.23;7.55;;;;;;;26.28;100.00;101230.00;5070849;28;20082;-71
2023/10/06 11:09:26;;;;;;;12.70;7.55;;;;;;;26.34;100.00;101168.72;5069620;28;20474;-70
2023/10/06 11:12:00;;;;;;;13.27;8.27;;;;;;;26.18;100.00;101184.66;5069527;28;20086;-70
2023/10/06 11:14:27;;;;;;;15.80;8.13;;;;;;;26.21;100.00;101186.19;5070376;28;20508;-70
2023/10/06 11:16:59;;;;;;;14.98;8.10;;;;;;;26.68;100.00;101233.09;5070604;28;20166;-70
2023/10/06 11:19:24;;;;;;;;;;;;;;;26.66;100.00;101236.78;5070872;28;20474;-72
2023/10/06 11:21:52;;;;;;;14.07;8.50;;;;;;;26.43;100.00;101244.50;5070471;28;19998;-71
2023/10/06 11:24:27;;;;;;;12.48;8.02;;;;;;;26.58;100.00;101224.28;5070399;28;20310;-71